sensor_id;sensor_type;location;lat;lon;timestamp;temperature;humidity
47961;DHT22;33721;48.852;9.936;2023-02-15T00:00:54;-0.80;99.90
47961;DHT22;33721;48.852;9.936;2023-02-15T00:03:29;-0.90;99.90
47961;DHT22;33721;48.852;9.936;2023-02-15T00:05:57;-0.90;99.90
47961;DHT22;33721;48.852;9.936;2023-02-15T00:08:22;-0.90;99.90
47961;DHT22;33721;48.852;9.936;2023-02-15T00:10:48;-0.90;99.90
47961;DHT22;33721;48.852;9.936;2023-02-15T00:13:14;-0.90;99.90
47961;DHT22;33721;48.852;9.936;2023-02-15T00:15:39;-1.00;99.90
47961;DHT22;33721;48.852;9.936;2023-02-15T00:18:05;-0.90;99.90
47961;DHT22;33721;48.852;9.936;2023-02-15T00:20:30;-0.90;99.90
47961;DHT22;33721;48.852;9.936;2023-02-15T00:22:56;-0.90;99.90
47961;DHT22;33721;48.852;9.936;2023-02-15T00:25:22;-0.90;99.90
47961;DHT22;33721;48.852;9.936;2023-02-15T00:27:47;-0.90;99.90
47961;DHT22;33721;48.852;9.936;2023-02-15T00:30:13;-1.00;99.90
47961;DHT22;33721;48.852;9.936;2023-02-15T00:32:39;-1.10;99.90
47961;DHT22;33721;48.852;9.936;2023-02-15T00:35:04;-1.10;99.90
47961;DHT22;33721;48.852;9.936;2023-02-15T00:37:31;-1.20;99.90
47961;DHT22;33721;48.852;9.936;2023-02-15T00:39:57;-1.30;99.90
47961;DHT22;33721;48.852;9.936;2023-02-15T00:42:22;-1.30;99.90
47961;DHT22;33721;48.852;9.936;2023-02-15T00:44:48;-1.30;99.90
47961;DHT22;33721;48.852;9.936;2023-02-15T00:47:14;-1.30;99.90
47961;DHT22;33721;48.852;9.936;2023-02-15T00:49:39;-1.30;99.90
47961;DHT22;33721;48.852;9.936;2023-02-15T00:52:05;-1.20;99.90
47961;DHT22;33721;48.852;9.936;2023-02-15T00:54:30;-1.20;99.90
47961;DHT22;33721;48.852;9.936;2023-02-15T00:56:56;-1.20;99.90
47961;DHT22;33721;48.852;9.936;2023-02-15T00:59:22;-1.20;99.90
47961;DHT22;33721;48.852;9.936;2023-02-15T01:01:47;-1.30;99.90
47961;DHT22;33721;48.852;9.936;2023-02-15T01:04:13;-1.30;99.90
47961;DHT22;33721;48.852;9.936;2023-02-15T01:06:38;-1.30;99.90
47961;DHT22;33721;48.852;9.936;2023-02-15T01:09:04;-1.30;99.90
47961;DHT22;33721;48.852;9.936;2023-02-15T01:11:30;-1.30;99.90
47961;DHT22;33721;48.852;9.936;2023-02-15T01:13:57;-1.30;99.90
47961;DHT22;33721;48.852;9.936;2023-02-15T01:16:25;-1.30;99.90
47961;DHT22;33721;48.852;9.936;2023-02-15T01:18:51;-1.30;99.90
47961;DHT22;33721;48.852;9.936;2023-02-15T01:21:19;-1.30;99.90
47961;DHT22;33721;48.852;9.936;2023-02-15T01:23:45;-1.30;99.90
47961;DHT22;33721;48.852;9.936;2023-02-15T01:26:11;-1.20;99.90
47961;DHT22;33721;48.852;9.936;2023-02-15T01:28:37;-1.20;99.90
47961;DHT22;33721;48.852;9.936;2023-02-15T01:31:11;-1.20;99.90
47961;DHT22;33721;48.852;9.936;2023-02-15T01:33:38;-1.10;99.90
47961;DHT22;33721;48.852;9.936;2023-02-15T01:36:04;-1.10;99.90
47961;DHT22;33721;48.852;9.936;2023-02-15T01:38:30;-1.10;99.90
47961;DHT22;33721;48.852;9.936;2023-02-15T01:40:56;-1.00;99.90
47961;DHT22;33721;48.852;9.936;2023-02-15T01:43:50;-1.10;99.90
47961;DHT22;33721;48.852;9.936;2023-02-15T01:46:18;-1.30;99.90
47961;DHT22;33721;48.852;9.936;2023-02-15T01:48:47;-1.30;99.90
47961;DHT22;33721;48.852;9.936;2023-02-15T01:51:16;-1.40;99.90
47961;DHT22;33721;48.852;9.936;2023-02-15T01:53:48;-1.40;99.90
47961;DHT22;33721;48.852;9.936;2023-02-15T01:56:22;-1.50;99.90
47961;DHT22;33721;48.852;9.936;2023-02-15T01:58:51;-1.60;99.90
47961;DHT22;33721;48.852;9.936;2023-02-15T02:01:18;-1.60;99.90
47961;DHT22;33721;48.852;9.936;2023-02-15T02:06:30;-1.60;99.90
47961;DHT22;33721;48.852;9.936;2023-02-15T02:08:57;-1.70;99.90
47961;DHT22;33721;48.852;9.936;2023-02-15T02:11:23;-1.60;99.90
47961;DHT22;33721;48.852;9.936;2023-02-15T02:13:50;-1.70;99.90
47961;DHT22;33721;48.852;9.936;2023-02-15T02:16:25;-1.80;99.90
47961;DHT22;33721;48.852;9.936;2023-02-15T02:24:40;-1.80;99.90
47961;DHT22;33721;48.852;9.936;2023-02-15T02:38:23;-1.70;99.90
47961;DHT22;33721;48.852;9.936;2023-02-15T02:43:59;-1.70;99.90
47961;DHT22;33721;48.852;9.936;2023-02-15T02:49:37;-1.80;99.90
47961;DHT22;33721;48.852;9.936;2023-02-15T02:54:49;-1.80;99.90
47961;DHT22;33721;48.852;9.936;2023-02-15T02:57:15;-1.80;99.90
47961;DHT22;33721;48.852;9.936;2023-02-15T02:59:45;-1.80;99.90
47961;DHT22;33721;48.852;9.936;2023-02-15T03:02:23;-1.80;99.90
47961;DHT22;33721;48.852;9.936;2023-02-15T03:04:55;-1.90;99.90
47961;DHT22;33721;48.852;9.936;2023-02-15T03:07:30;-1.80;99.90
47961;DHT22;33721;48.852;9.936;2023-02-15T03:10:00;-1.80;99.90
47961;DHT22;33721;48.852;9.936;2023-02-15T03:12:34;-1.80;99.90
47961;DHT22;33721;48.852;9.936;2023-02-15T03:15:10;-1.90;99.90
47961;DHT22;33721;48.852;9.936;2023-02-15T03:17:39;-1.90;99.90
47961;DHT22;33721;48.852;9.936;2023-02-15T03:20:33;-2.00;99.90
47961;DHT22;33721;48.852;9.936;2023-02-15T03:23:04;-2.00;99.90
47961;DHT22;33721;48.852;9.936;2023-02-15T03:25:46;-2.00;99.90
47961;DHT22;33721;48.852;9.936;2023-02-15T03:28:20;-2.00;99.90
47961;DHT22;33721;48.852;9.936;2023-02-15T03:30:53;-2.00;99.90
47961;DHT22;33721;48.852;9.936;2023-02-15T03:33:20;-2.10;99.90
47961;DHT22;33721;48.852;9.936;2023-02-15T03:35:54;-2.20;99.90
47961;DHT22;33721;48.852;9.936;2023-02-15T03:38:31;-2.20;99.90
47961;DHT22;33721;48.852;9.936;2023-02-15T03:40:59;-2.20;99.90
47961;DHT22;33721;48.852;9.936;2023-02-15T03:43:49;-2.20;99.90
47961;DHT22;33721;48.852;9.936;2023-02-15T03:49:03;-2.30;99.90
47961;DHT22;33721;48.852;9.936;2023-02-15T03:51:34;-2.30;99.90
47961;DHT22;33721;48.852;9.936;2023-02-15T03:54:13;-2.30;99.90
47961;DHT22;33721;48.852;9.936;2023-02-15T03:57:01;-2.30;99.90
47961;DHT22;33721;48.852;9.936;2023-02-15T03:59:45;-2.30;99.90
47961;DHT22;33721;48.852;9.936;2023-02-15T04:02:38;-2.20;99.90
47961;DHT22;33721;48.852;9.936;2023-02-15T04:05:05;-2.30;99.90
47961;DHT22;33721;48.852;9.936;2023-02-15T04:07:31;-2.30;99.90
47961;DHT22;33721;48.852;9.936;2023-02-15T04:09:56;-2.30;99.90
47961;DHT22;33721;48.852;9.936;2023-02-15T04:12:41;-2.30;99.90
47961;DHT22;33721;48.852;9.936;2023-02-15T04:15:11;-2.30;99.90
47961;DHT22;33721;48.852;9.936;2023-02-15T04:17:55;-2.40;99.90
47961;DHT22;33721;48.852;9.936;2023-02-15T04:20:21;-2.30;99.90
47961;DHT22;33721;48.852;9.936;2023-02-15T04:23:07;-2.30;99.90
47961;DHT22;33721;48.852;9.936;2023-02-15T04:25:51;-2.30;99.90
47961;DHT22;33721;48.852;9.936;2023-02-15T04:28:17;-2.30;99.90
47961;DHT22;33721;48.852;9.936;2023-02-15T04:30:43;-2.40;99.90
47961;DHT22;33721;48.852;9.936;2023-02-15T04:33:08;-2.50;99.90
47961;DHT22;33721;48.852;9.936;2023-02-15T04:35:34;-2.50;99.90
47961;DHT22;33721;48.852;9.936;2023-02-15T04:37:59;-2.50;99.90
47961;DHT22;33721;48.852;9.936;2023-02-15T04:40:25;-2.50;99.90
47961;DHT22;33721;48.852;9.936;2023-02-15T04:42:51;-2.50;99.90
47961;DHT22;33721;48.852;9.936;2023-02-15T04:45:17;-2.50;99.90
47961;DHT22;33721;48.852;9.936;2023-02-15T04:47:43;-2.50;99.90
47961;DHT22;33721;48.852;9.936;2023-02-15T04:50:09;-2.50;99.90
47961;DHT22;33721;48.852;9.936;2023-02-15T04:52:35;-2.50;99.90
47961;DHT22;33721;48.852;9.936;2023-02-15T04:55:01;-2.60;99.90
47961;DHT22;33721;48.852;9.936;2023-02-15T04:57:27;-2.60;99.90
47961;DHT22;33721;48.852;9.936;2023-02-15T04:59:52;-2.60;99.90
47961;DHT22;33721;48.852;9.936;2023-02-15T05:02:18;-2.60;99.90
47961;DHT22;33721;48.852;9.936;2023-02-15T05:04:44;-2.60;99.90
47961;DHT22;33721;48.852;9.936;2023-02-15T05:07:09;-2.60;99.90
47961;DHT22;33721;48.852;9.936;2023-02-15T05:09:35;-2.60;99.90
47961;DHT22;33721;48.852;9.936;2023-02-15T05:12:01;-2.60;99.90
47961;DHT22;33721;48.852;9.936;2023-02-15T05:14:26;-2.70;99.90
47961;DHT22;33721;48.852;9.936;2023-02-15T05:16:52;-2.70;99.90
47961;DHT22;33721;48.852;9.936;2023-02-15T05:19:19;-2.70;99.90
47961;DHT22;33721;48.852;9.936;2023-02-15T05:21:44;-2.70;99.90
47961;DHT22;33721;48.852;9.936;2023-02-15T05:24:10;-2.70;99.90
47961;DHT22;33721;48.852;9.936;2023-02-15T05:26:54;-2.70;99.90
47961;DHT22;33721;48.852;9.936;2023-02-15T05:29:38;-2.70;99.90
47961;DHT22;33721;48.852;9.936;2023-02-15T05:32:04;-2.80;99.90
47961;DHT22;33721;48.852;9.936;2023-02-15T05:34:30;-2.80;99.90
47961;DHT22;33721;48.852;9.936;2023-02-15T05:36:55;-2.90;99.90
47961;DHT22;33721;48.852;9.936;2023-02-15T05:39:22;-2.90;99.90
47961;DHT22;33721;48.852;9.936;2023-02-15T05:41:47;-2.90;99.90
47961;DHT22;33721;48.852;9.936;2023-02-15T05:44:13;-2.90;99.90
47961;DHT22;33721;48.852;9.936;2023-02-15T05:46:38;-2.90;99.90
47961;DHT22;33721;48.852;9.936;2023-02-15T05:49:04;-2.90;99.90
47961;DHT22;33721;48.852;9.936;2023-02-15T05:51:30;-3.00;99.90
47961;DHT22;33721;48.852;9.936;2023-02-15T05:53:55;-3.00;99.90
47961;DHT22;33721;48.852;9.936;2023-02-15T05:56:21;-3.00;99.90
47961;DHT22;33721;48.852;9.936;2023-02-15T05:58:47;-3.00;99.90
47961;DHT22;33721;48.852;9.936;2023-02-15T06:01:17;-2.90;99.90
47961;DHT22;33721;48.852;9.936;2023-02-15T06:03:44;-2.90;99.90
47961;DHT22;33721;48.852;9.936;2023-02-15T06:06:10;-3.00;99.90
47961;DHT22;33721;48.852;9.936;2023-02-15T06:08:37;-3.00;99.90
47961;DHT22;33721;48.852;9.936;2023-02-15T06:11:04;-3.00;99.90
47961;DHT22;33721;48.852;9.936;2023-02-15T06:13:30;-2.90;99.90
47961;DHT22;33721;48.852;9.936;2023-02-15T06:15:56;-2.90;99.90
47961;DHT22;33721;48.852;9.936;2023-02-15T06:18:22;-2.90;99.90
47961;DHT22;33721;48.852;9.936;2023-02-15T06:20:48;-2.90;99.90
47961;DHT22;33721;48.852;9.936;2023-02-15T06:23:14;-2.90;99.90
47961;DHT22;33721;48.852;9.936;2023-02-15T06:25:40;-3.00;99.90
47961;DHT22;33721;48.852;9.936;2023-02-15T06:28:05;-3.00;99.90
47961;DHT22;33721;48.852;9.936;2023-02-15T06:30:31;-3.00;99.90
47961;DHT22;33721;48.852;9.936;2023-02-15T06:32:57;-3.00;99.90
47961;DHT22;33721;48.852;9.936;2023-02-15T06:35:23;-3.00;99.90
47961;DHT22;33721;48.852;9.936;2023-02-15T06:37:49;-3.00;99.90
47961;DHT22;33721;48.852;9.936;2023-02-15T06:40:15;-2.90;99.90
47961;DHT22;33721;48.852;9.936;2023-02-15T06:42:41;-3.00;99.90
47961;DHT22;33721;48.852;9.936;2023-02-15T06:45:08;-3.10;99.90
47961;DHT22;33721;48.852;9.936;2023-02-15T06:47:34;-3.20;99.90
47961;DHT22;33721;48.852;9.936;2023-02-15T06:49:59;-3.10;99.90
47961;DHT22;33721;48.852;9.936;2023-02-15T06:52:25;-3.00;99.90
47961;DHT22;33721;48.852;9.936;2023-02-15T06:54:51;-2.90;99.90
47961;DHT22;33721;48.852;9.936;2023-02-15T06:57:17;-2.90;99.90
47961;DHT22;33721;48.852;9.936;2023-02-15T06:59:43;-2.90;99.90
47961;DHT22;33721;48.852;9.936;2023-02-15T07:02:11;-2.80;99.90
47961;DHT22;33721;48.852;9.936;2023-02-15T07:04:36;-2.70;99.90
47961;DHT22;33721;48.852;9.936;2023-02-15T07:07:02;-2.60;99.90
47961;DHT22;33721;48.852;9.936;2023-02-15T07:09:28;-2.50;99.90
47961;DHT22;33721;48.852;9.936;2023-02-15T07:11:53;-2.60;99.90
47961;DHT22;33721;48.852;9.936;2023-02-15T07:14:37;-2.50;99.90
47961;DHT22;33721;48.852;9.936;2023-02-15T07:17:03;-2.50;99.90
47961;DHT22;33721;48.852;9.936;2023-02-15T07:19:29;-2.40;99.90
47961;DHT22;33721;48.852;9.936;2023-02-15T07:21:54;-2.40;99.90
47961;DHT22;33721;48.852;9.936;2023-02-15T07:24:20;-2.30;99.90
47961;DHT22;33721;48.852;9.936;2023-02-15T07:26:45;-2.20;99.90
47961;DHT22;33721;48.852;9.936;2023-02-15T07:29:11;-2.10;99.90
47961;DHT22;33721;48.852;9.936;2023-02-15T07:31:37;-2.10;99.90
47961;DHT22;33721;48.852;9.936;2023-02-15T07:34:02;-2.00;99.90
47961;DHT22;33721;48.852;9.936;2023-02-15T07:36:28;-2.10;99.90
47961;DHT22;33721;48.852;9.936;2023-02-15T07:38:53;-2.10;99.90
47961;DHT22;33721;48.852;9.936;2023-02-15T07:41:19;-2.00;99.90
47961;DHT22;33721;48.852;9.936;2023-02-15T07:43:45;-1.90;99.90
47961;DHT22;33721;48.852;9.936;2023-02-15T07:46:13;-1.70;99.90
47961;DHT22;33721;48.852;9.936;2023-02-15T07:48:40;-1.60;99.90
47961;DHT22;33721;48.852;9.936;2023-02-15T07:51:07;-1.50;99.90
47961;DHT22;33721;48.852;9.936;2023-02-15T07:53:33;-1.40;99.90
47961;DHT22;33721;48.852;9.936;2023-02-15T07:56:05;-1.40;99.90
47961;DHT22;33721;48.852;9.936;2023-02-15T07:58:34;-1.30;99.90
47961;DHT22;33721;48.852;9.936;2023-02-15T08:03:49;-1.20;99.90
47961;DHT22;33721;48.852;9.936;2023-02-15T08:06:15;-1.10;99.90
47961;DHT22;33721;48.852;9.936;2023-02-15T08:08:41;-1.00;99.90
47961;DHT22;33721;48.852;9.936;2023-02-15T08:11:24;-0.90;99.90
47961;DHT22;33721;48.852;9.936;2023-02-15T08:13:55;-0.90;99.90
47961;DHT22;33721;48.852;9.936;2023-02-15T08:19:11;-0.70;99.90
47961;DHT22;33721;48.852;9.936;2023-02-15T08:21:39;-0.50;99.90
47961;DHT22;33721;48.852;9.936;2023-02-15T08:24:07;-0.40;99.90
47961;DHT22;33721;48.852;9.936;2023-02-15T08:26:33;-0.20;99.90
47961;DHT22;33721;48.852;9.936;2023-02-15T08:29:00;-0.10;99.90
47961;DHT22;33721;48.852;9.936;2023-02-15T08:31:26;0.00;99.90
47961;DHT22;33721;48.852;9.936;2023-02-15T08:33:54;0.10;99.90
47961;DHT22;33721;48.852;9.936;2023-02-15T08:36:22;0.20;99.90
47961;DHT22;33721;48.852;9.936;2023-02-15T08:38:49;0.30;99.90
47961;DHT22;33721;48.852;9.936;2023-02-15T08:41:26;0.40;99.90
47961;DHT22;33721;48.852;9.936;2023-02-15T08:43:59;0.60;99.90
47961;DHT22;33721;48.852;9.936;2023-02-15T08:46:27;0.70;99.90
47961;DHT22;33721;48.852;9.936;2023-02-15T08:48:53;0.90;99.90
47961;DHT22;33721;48.852;9.936;2023-02-15T08:51:23;1.10;99.90
47961;DHT22;33721;48.852;9.936;2023-02-15T08:53:53;1.30;99.90
47961;DHT22;33721;48.852;9.936;2023-02-15T08:56:22;1.50;99.90
47961;DHT22;33721;48.852;9.936;2023-02-15T08:58:48;1.70;99.90
47961;DHT22;33721;48.852;9.936;2023-02-15T09:01:25;1.90;99.90
47961;DHT22;33721;48.852;9.936;2023-02-15T09:03:55;2.00;99.90
47961;DHT22;33721;48.852;9.936;2023-02-15T09:06:22;2.10;99.90
47961;DHT22;33721;48.852;9.936;2023-02-15T09:08:48;2.20;99.90
47961;DHT22;33721;48.852;9.936;2023-02-15T09:11:21;2.40;99.90
47961;DHT22;33721;48.852;9.936;2023-02-15T09:13:59;2.60;99.90
47961;DHT22;33721;48.852;9.936;2023-02-15T09:16:27;2.80;99.90
47961;DHT22;33721;48.852;9.936;2023-02-15T09:18:53;3.00;99.90
47961;DHT22;33721;48.852;9.936;2023-02-15T09:21:21;3.10;99.90
47961;DHT22;33721;48.852;9.936;2023-02-15T09:23:49;3.30;99.90
47961;DHT22;33721;48.852;9.936;2023-02-15T09:26:19;3.40;99.90
47961;DHT22;33721;48.852;9.936;2023-02-15T09:28:46;3.60;99.90
47961;DHT22;33721;48.852;9.936;2023-02-15T09:31:14;3.80;99.90
47961;DHT22;33721;48.852;9.936;2023-02-15T09:33:41;4.00;99.90
47961;DHT22;33721;48.852;9.936;2023-02-15T09:36:23;4.20;99.90
47961;DHT22;33721;48.852;9.936;2023-02-15T09:39:00;4.40;99.90
47961;DHT22;33721;48.852;9.936;2023-02-15T09:41:46;4.50;99.90
47961;DHT22;33721;48.852;9.936;2023-02-15T09:47:28;4.80;99.90
47961;DHT22;33721;48.852;9.936;2023-02-15T10:03:52;5.80;99.90
47961;DHT22;33721;48.852;9.936;2023-02-15T10:09:14;6.10;99.90
47961;DHT22;33721;48.852;9.936;2023-02-15T10:12:10;6.30;99.90
47961;DHT22;33721;48.852;9.936;2023-02-15T10:28:20;7.20;99.90
47961;DHT22;33721;48.852;9.936;2023-02-15T10:36:24;7.50;99.90
47961;DHT22;33721;48.852;9.936;2023-02-15T10:39:02;7.50;99.90
47961;DHT22;33721;48.852;9.936;2023-02-15T10:41:43;7.80;99.90
47961;DHT22;33721;48.852;9.936;2023-02-15T10:50:33;8.00;99.90
47961;DHT22;33721;48.852;9.936;2023-02-15T10:53:48;8.20;99.90
47961;DHT22;33721;48.852;9.936;2023-02-15T11:02:00;8.60;99.90
47961;DHT22;33721;48.852;9.936;2023-02-15T11:04:48;8.70;99.90
47961;DHT22;33721;48.852;9.936;2023-02-15T11:07:21;8.80;99.90
47961;DHT22;33721;48.852;9.936;2023-02-15T11:09:51;8.80;99.90
47961;DHT22;33721;48.852;9.936;2023-02-15T11:12:24;9.00;99.90
47961;DHT22;33721;48.852;9.936;2023-02-15T11:17:25;9.00;99.90
47961;DHT22;33721;48.852;9.936;2023-02-15T11:22:38;9.50;99.90
47961;DHT22;33721;48.852;9.936;2023-02-15T11:25:28;9.80;99.90
47961;DHT22;33721;48.852;9.936;2023-02-15T11:27:55;9.80;99.90
47961;DHT22;33721;48.852;9.936;2023-02-15T11:30:23;9.90;99.90
47961;DHT22;33721;48.852;9.936;2023-02-15T11:32:56;10.00;99.90
47961;DHT22;33721;48.852;9.936;2023-02-15T11:35:28;10.00;99.90
47961;DHT22;33721;48.852;9.936;2023-02-15T11:38:20;10.20;99.90
47961;DHT22;33721;48.852;9.936;2023-02-15T11:41:04;10.30;99.90
47961;DHT22;33721;48.852;9.936;2023-02-15T11:46:23;10.80;99.90
47961;DHT22;33721;48.852;9.936;2023-02-15T11:48:49;11.10;99.90
47961;DHT22;33721;48.852;9.936;2023-02-15T11:51:18;11.10;99.90
47961;DHT22;33721;48.852;9.936;2023-02-15T11:53:45;11.20;99.90
47961;DHT22;33721;48.852;9.936;2023-02-15T11:56:20;11.30;99.90
47961;DHT22;33721;48.852;9.936;2023-02-15T11:59:00;11.30;99.90
47961;DHT22;33721;48.852;9.936;2023-02-15T12:01:36;11.30;99.90
47961;DHT22;33721;48.852;9.936;2023-02-15T12:04:25;11.70;99.90
47961;DHT22;33721;48.852;9.936;2023-02-15T12:06:59;12.10;99.90
47961;DHT22;33721;48.852;9.936;2023-02-15T12:09:47;12.30;99.90
47961;DHT22;33721;48.852;9.936;2023-02-15T12:12:25;12.10;99.90
47961;DHT22;33721;48.852;9.936;2023-02-15T12:15:02;12.10;99.90
47961;DHT22;33721;48.852;9.936;2023-02-15T12:17:33;12.30;99.90
47961;DHT22;33721;48.852;9.936;2023-02-15T12:22:55;12.50;99.90
47961;DHT22;33721;48.852;9.936;2023-02-15T12:25:56;12.40;99.90
47961;DHT22;33721;48.852;9.936;2023-02-15T12:28:34;12.50;99.90
47961;DHT22;33721;48.852;9.936;2023-02-15T12:31:02;12.90;99.90
47961;DHT22;33721;48.852;9.936;2023-02-15T12:33:43;13.10;99.60
47961;DHT22;33721;48.852;9.936;2023-02-15T12:36:18;13.20;98.30
47961;DHT22;33721;48.852;9.936;2023-02-15T12:39:03;13.30;98.20
47961;DHT22;33721;48.852;9.936;2023-02-15T12:41:30;13.30;97.80
47961;DHT22;33721;48.852;9.936;2023-02-15T12:46:41;13.80;97.10
47961;DHT22;33721;48.852;9.936;2023-02-15T12:51:53;13.80;92.70
47961;DHT22;33721;48.852;9.936;2023-02-15T12:54:42;13.50;92.90
47961;DHT22;33721;48.852;9.936;2023-02-15T12:59:59;13.70;93.40
47961;DHT22;33721;48.852;9.936;2023-02-15T13:07:52;14.20;90.90
47961;DHT22;33721;48.852;9.936;2023-02-15T13:10:51;14.20;91.80
47961;DHT22;33721;48.852;9.936;2023-02-15T13:13:20;13.90;91.70
47961;DHT22;33721;48.852;9.936;2023-02-15T13:15:51;14.20;92.80
47961;DHT22;33721;48.852;9.936;2023-02-15T13:20:54;15.20;92.50
47961;DHT22;33721;48.852;9.936;2023-02-15T13:23:28;15.50;92.50
47961;DHT22;33721;48.852;9.936;2023-02-15T13:25:59;15.40;89.50
47961;DHT22;33721;48.852;9.936;2023-02-15T13:28:37;15.60;90.90
47961;DHT22;33721;48.852;9.936;2023-02-15T13:31:18;15.90;89.00
47961;DHT22;33721;48.852;9.936;2023-02-15T13:33:48;16.20;90.40
47961;DHT22;33721;48.852;9.936;2023-02-15T13:37:03;16.20;87.80
47961;DHT22;33721;48.852;9.936;2023-02-15T13:45:26;15.90;83.30
47961;DHT22;33721;48.852;9.936;2023-02-15T13:50:55;16.10;86.00
47961;DHT22;33721;48.852;9.936;2023-02-15T13:53:40;16.30;83.30
47961;DHT22;33721;48.852;9.936;2023-02-15T13:59:24;16.10;84.30
47961;DHT22;33721;48.852;9.936;2023-02-15T14:02:01;16.10;81.50
47961;DHT22;33721;48.852;9.936;2023-02-15T14:10:03;15.80;82.10
47961;DHT22;33721;48.852;9.936;2023-02-15T14:18:35;15.80;85.10
47961;DHT22;33721;48.852;9.936;2023-02-15T14:22:22;16.00;81.50
47961;DHT22;33721;48.852;9.936;2023-02-15T14:24:42;16.30;80.60
47961;DHT22;33721;48.852;9.936;2023-02-15T14:29:49;16.00;78.50
47961;DHT22;33721;48.852;9.936;2023-02-15T14:35:35;16.30;80.90
47961;DHT22;33721;48.852;9.936;2023-02-15T14:38:04;16.60;79.10
47961;DHT22;33721;48.852;9.936;2023-02-15T14:48:49;16.70;79.20
47961;DHT22;33721;48.852;9.936;2023-02-15T14:59:50;16.20;76.30
47961;DHT22;33721;48.852;9.936;2023-02-15T15:07:40;16.30;76.20
47961;DHT22;33721;48.852;9.936;2023-02-15T15:10:32;16.10;77.00
47961;DHT22;33721;48.852;9.936;2023-02-15T15:12:59;16.00;82.10
47961;DHT22;33721;48.852;9.936;2023-02-15T15:15:47;16.30;81.30
47961;DHT22;33721;48.852;9.936;2023-02-15T15:18:49;16.70;81.20
47961;DHT22;33721;48.852;9.936;2023-02-15T15:33:08;16.10;76.30
47961;DHT22;33721;48.852;9.936;2023-02-15T15:36:29;15.70;82.00
47961;DHT22;33721;48.852;9.936;2023-02-15T15:39:16;15.50;84.40
47961;DHT22;33721;48.852;9.936;2023-02-15T15:47:10;15.30;84.70
47961;DHT22;33721;48.852;9.936;2023-02-15T15:49:39;15.20;82.80
47961;DHT22;33721;48.852;9.936;2023-02-15T15:52:19;15.10;81.00
47961;DHT22;33721;48.852;9.936;2023-02-15T15:54:50;15.00;77.60
47961;DHT22;33721;48.852;9.936;2023-02-15T15:57:38;14.90;78.30
47961;DHT22;33721;48.852;9.936;2023-02-15T16:02:58;14.00;88.20
47961;DHT22;33721;48.852;9.936;2023-02-15T16:05:24;13.60;90.70
47961;DHT22;33721;48.852;9.936;2023-02-15T16:07:50;13.40;91.60
47961;DHT22;33721;48.852;9.936;2023-02-15T16:10:26;13.30;92.90
47961;DHT22;33721;48.852;9.936;2023-02-15T16:12:52;12.90;95.20
47961;DHT22;33721;48.852;9.936;2023-02-15T16:15:45;12.50;97.00
47961;DHT22;33721;48.852;9.936;2023-02-15T16:18:14;12.00;99.40
47961;DHT22;33721;48.852;9.936;2023-02-15T16:20:40;11.70;99.90
47961;DHT22;33721;48.852;9.936;2023-02-15T16:28:12;11.00;99.90
47961;DHT22;33721;48.852;9.936;2023-02-15T16:30:38;10.60;99.90
47961;DHT22;33721;48.852;9.936;2023-02-15T16:33:16;10.40;99.90
47961;DHT22;33721;48.852;9.936;2023-02-15T16:35:57;10.10;99.90
47961;DHT22;33721;48.852;9.936;2023-02-15T16:41:29;9.70;99.90
47961;DHT22;33721;48.852;9.936;2023-02-15T16:43:58;9.50;99.90
47961;DHT22;33721;48.852;9.936;2023-02-15T16:46:31;9.30;99.90
47961;DHT22;33721;48.852;9.936;2023-02-15T16:49:03;9.10;99.90
47961;DHT22;33721;48.852;9.936;2023-02-15T16:51:32;8.90;99.90
47961;DHT22;33721;48.852;9.936;2023-02-15T16:54:06;8.80;99.90
47961;DHT22;33721;48.852;9.936;2023-02-15T16:56:33;8.70;99.90
47961;DHT22;33721;48.852;9.936;2023-02-15T16:59:00;8.60;99.90
47961;DHT22;33721;48.852;9.936;2023-02-15T17:01:29;8.50;99.90
47961;DHT22;33721;48.852;9.936;2023-02-15T17:04:14;8.50;99.90
47961;DHT22;33721;48.852;9.936;2023-02-15T17:06:59;8.20;99.90
47961;DHT22;33721;48.852;9.936;2023-02-15T17:09:25;8.10;99.90
47961;DHT22;33721;48.852;9.936;2023-02-15T17:11:51;8.00;99.90
47961;DHT22;33721;48.852;9.936;2023-02-15T17:14:21;7.90;99.90
47961;DHT22;33721;48.852;9.936;2023-02-15T17:16:48;7.80;99.90
47961;DHT22;33721;48.852;9.936;2023-02-15T17:19:27;7.70;99.90
47961;DHT22;33721;48.852;9.936;2023-02-15T17:21:59;7.60;99.90
47961;DHT22;33721;48.852;9.936;2023-02-15T17:24:43;7.50;99.90
47961;DHT22;33721;48.852;9.936;2023-02-15T17:27:20;7.40;99.90
47961;DHT22;33721;48.852;9.936;2023-02-15T17:32:22;7.20;99.90
47961;DHT22;33721;48.852;9.936;2023-02-15T17:40:20;6.80;99.90
47961;DHT22;33721;48.852;9.936;2023-02-15T17:42:46;6.60;99.90
47961;DHT22;33721;48.852;9.936;2023-02-15T17:45:12;6.50;99.90
47961;DHT22;33721;48.852;9.936;2023-02-15T17:47:37;6.40;99.90
47961;DHT22;33721;48.852;9.936;2023-02-15T17:50:05;6.30;99.90
47961;DHT22;33721;48.852;9.936;2023-02-15T17:52:31;6.20;99.90
47961;DHT22;33721;48.852;9.936;2023-02-15T17:54:57;6.10;99.90
47961;DHT22;33721;48.852;9.936;2023-02-15T17:57:42;6.00;99.90
47961;DHT22;33721;48.852;9.936;2023-02-15T18:00:12;6.00;99.90
47961;DHT22;33721;48.852;9.936;2023-02-15T18:02:57;5.90;99.90
47961;DHT22;33721;48.852;9.936;2023-02-15T18:05:41;5.80;99.90
47961;DHT22;33721;48.852;9.936;2023-02-15T18:08:26;5.70;99.90
47961;DHT22;33721;48.852;9.936;2023-02-15T18:11:12;5.60;99.90
47961;DHT22;33721;48.852;9.936;2023-02-15T18:13:57;5.50;99.90
47961;DHT22;33721;48.852;9.936;2023-02-15T18:16:28;5.40;99.90
47961;DHT22;33721;48.852;9.936;2023-02-15T18:18:55;5.30;99.90
47961;DHT22;33721;48.852;9.936;2023-02-15T18:21:22;5.10;99.90
47961;DHT22;33721;48.852;9.936;2023-02-15T18:23:47;5.00;99.90
47961;DHT22;33721;48.852;9.936;2023-02-15T18:26:20;4.90;99.90
47961;DHT22;33721;48.852;9.936;2023-02-15T18:28:46;4.90;99.90
47961;DHT22;33721;48.852;9.936;2023-02-15T18:31:12;4.90;99.90
47961;DHT22;33721;48.852;9.936;2023-02-15T18:33:42;4.80;99.90
47961;DHT22;33721;48.852;9.936;2023-02-15T18:36:13;4.70;99.90
47961;DHT22;33721;48.852;9.936;2023-02-15T18:38:41;4.60;99.90
47961;DHT22;33721;48.852;9.936;2023-02-15T18:41:15;4.60;99.90
47961;DHT22;33721;48.852;9.936;2023-02-15T18:43:41;4.50;99.90
47961;DHT22;33721;48.852;9.936;2023-02-15T18:46:07;4.50;99.90
47961;DHT22;33721;48.852;9.936;2023-02-15T18:48:33;4.40;99.90
47961;DHT22;33721;48.852;9.936;2023-02-15T18:50:58;4.40;99.90
47961;DHT22;33721;48.852;9.936;2023-02-15T18:53:24;4.40;99.90
47961;DHT22;33721;48.852;9.936;2023-02-15T18:55:50;4.20;99.90
47961;DHT22;33721;48.852;9.936;2023-02-15T18:58:18;4.10;99.90
47961;DHT22;33721;48.852;9.936;2023-02-15T19:00:44;4.00;99.90
47961;DHT22;33721;48.852;9.936;2023-02-15T19:03:12;3.90;99.90
47961;DHT22;33721;48.852;9.936;2023-02-15T19:05:40;3.70;99.90
47961;DHT22;33721;48.852;9.936;2023-02-15T19:08:16;3.60;99.90
47961;DHT22;33721;48.852;9.936;2023-02-15T19:10:43;3.50;99.90
47961;DHT22;33721;48.852;9.936;2023-02-15T19:13:10;3.50;99.90
47961;DHT22;33721;48.852;9.936;2023-02-15T19:15:36;3.50;99.90
47961;DHT22;33721;48.852;9.936;2023-02-15T19:18:02;3.50;99.90
47961;DHT22;33721;48.852;9.936;2023-02-15T19:20:36;3.40;99.90
47961;DHT22;33721;48.852;9.936;2023-02-15T19:23:03;3.40;99.90